sensor_id;sensor_type;location;lat;lon;timestamp;pressure;altitude;pressure_sealevel;temperature;humidity
49055;BME280;35405;52.344;14.530;2022-08-07T00:00:24;101890.00;;;11.43;100.00
49055;BME280;35405;52.344;14.530;2022-08-07T00:02:50;101883.44;;;11.34;100.00
49055;BME280;35405;52.344;14.530;2022-08-07T00:05:15;101885.88;;;11.30;100.00
49055;BME280;35405;52.344;14.530;2022-08-07T00:07:41;101887.28;;;11.38;100.00
49055;BME280;35405;52.344;14.530;2022-08-07T00:10:06;101884.25;;;11.39;100.00
49055;BME280;35405;52.344;14.530;2022-08-07T00:12:31;101878.53;;;11.36;100.00
49055;BME280;35405;52.344;14.530;2022-08-07T00:14:57;101883.44;;;11.29;100.00
49055;BME280;35405;52.344;14.530;2022-08-07T00:17:22;101886.38;;;11.22;100.00
49055;BME280;35405;52.344;14.530;2022-08-07T00:19:48;101889.66;;;11.24;100.00
49055;BME280;35405;52.344;14.530;2022-08-07T00:22:13;101884.19;;;11.19;100.00
49055;BME280;35405;52.344;14.530;2022-08-07T00:24:39;101896.69;;;11.15;100.00
49055;BME280;35405;52.344;14.530;2022-08-07T00:27:04;101891.81;;;11.17;100.00
49055;BME280;35405;52.344;14.530;2022-08-07T00:29:29;101888.56;;;11.20;100.00
49055;BME280;35405;52.344;14.530;2022-08-07T00:31:54;101882.03;;;11.21;100.00
49055;BME280;35405;52.344;14.530;2022-08-07T00:34:24;101883.63;;;11.12;100.00
49055;BME280;35405;52.344;14.530;2022-08-07T00:36:49;101889.06;;;11.12;100.00
49055;BME280;35405;52.344;14.530;2022-08-07T00:39:14;101887.16;;;11.07;100.00
49055;BME280;35405;52.344;14.530;2022-08-07T00:41:45;101883.31;;;11.03;100.00
49055;BME280;35405;52.344;14.530;2022-08-07T00:44:11;101888.19;;;10.96;100.00
49055;BME280;35405;52.344;14.530;2022-08-07T00:46:37;101886.28;;;10.96;100.00
49055;BME280;35405;52.344;14.530;2022-08-07T00:49:02;101885.41;;;10.91;100.00
49055;BME280;35405;52.344;14.530;2022-08-07T00:51:28;101887.06;;;10.92;100.00
49055;BME280;35405;52.344;14.530;2022-08-07T00:53:53;101886.63;;;11.10;100.00
49055;BME280;35405;52.344;14.530;2022-08-07T00:56:18;101881.72;;;11.07;100.00
49055;BME280;35405;52.344;14.530;2022-08-07T00:58:44;101881.97;;;11.06;100.00
49055;BME280;35405;52.344;14.530;2022-08-07T01:01:09;101876.44;;;10.90;100.00
49055;BME280;35405;52.344;14.530;2022-08-07T01:03:35;101879.91;;;10.75;100.00
49055;BME280;35405;52.344;14.530;2022-08-07T01:06:00;101885.34;;;10.75;100.00
49055;BME280;35405;52.344;14.530;2022-08-07T01:08:27;101891.09;;;10.84;100.00
49055;BME280;35405;52.344;14.530;2022-08-07T01:10:52;101892.78;;;10.90;100.00
49055;BME280;35405;52.344;14.530;2022-08-07T01:13:18;101891.38;;;10.88;100.00
49055;BME280;35405;52.344;14.530;2022-08-07T01:15:43;101887.81;;;10.77;100.00
49055;BME280;35405;52.344;14.530;2022-08-07T01:18:10;101908.41;;;10.63;100.00
49055;BME280;35405;52.344;14.530;2022-08-07T01:20:37;101908.34;;;10.58;100.00
49055;BME280;35405;52.344;14.530;2022-08-07T01:23:05;101899.81;;;10.44;100.00
49055;BME280;35405;52.344;14.530;2022-08-07T01:25:31;101900.13;;;10.47;100.00
49055;BME280;35405;52.344;14.530;2022-08-07T05:42:57;101928.78;;;14.57;100.00
49055;BME280;35405;52.344;14.530;2022-08-07T05:45:22;101930.91;;;14.66;100.00
49055;BME280;35405;52.344;14.530;2022-08-07T05:47:48;101931.34;;;14.78;100.00
49055;BME280;35405;52.344;14.530;2022-08-07T05:50:14;101923.38;;;15.05;100.00
49055;BME280;35405;52.344;14.530;2022-08-07T05:52:40;101927.50;;;15.27;100.00
49055;BME280;35405;52.344;14.530;2022-08-07T05:55:05;101930.63;;;15.39;100.00
49055;BME280;35405;52.344;14.530;2022-08-07T05:57:32;101930.03;;;15.42;100.00
49055;BME280;35405;52.344;14.530;2022-08-07T05:59:59;101925.41;;;15.62;100.00
49055;BME280;35405;52.344;14.530;2022-08-07T06:02:26;101932.41;;;15.73;100.00
49055;BME280;35405;52.344;14.530;2022-08-07T06:04:54;101933.38;;;15.82;100.00
49055;BME280;35405;52.344;14.530;2022-08-07T06:07:21;101931.16;;;15.84;100.00
49055;BME280;35405;52.344;14.530;2022-08-07T06:09:46;101937.22;;;15.81;100.00
49055;BME280;35405;52.344;14.530;2022-08-07T06:12:12;101935.84;;;15.84;100.00
49055;BME280;35405;52.344;14.530;2022-08-07T06:14:38;101938.66;;;15.97;100.00
49055;BME280;35405;52.344;14.530;2022-08-07T06:17:03;101938.44;;;16.13;100.00
49055;BME280;35405;52.344;14.530;2022-08-07T06:19:29;101938.19;;;16.28;100.00
49055;BME280;35405;52.344;14.530;2022-08-07T06:21:55;101944.56;;;16.56;100.00
49055;BME280;35405;52.344;14.530;2022-08-07T06:24:20;101934.94;;;16.73;100.00
49055;BME280;35405;52.344;14.530;2022-08-07T06:26:45;101936.44;;;16.98;100.00
49055;BME280;35405;52.344;14.530;2022-08-07T06:29:11;101935.31;;;17.12;100.00
49055;BME280;35405;52.344;14.530;2022-08-07T06:31:36;101940.19;;;17.29;100.00
49055;BME280;35405;52.344;14.530;2022-08-07T06:34:02;101943.75;;;17.44;100.00
49055;BME280;35405;52.344;14.530;2022-08-07T06:36:27;101943.34;;;17.50;100.00
49055;BME280;35405;52.344;14.530;2022-08-07T06:38:54;101939.06;;;17.58;100.00
49055;BME280;35405;52.344;14.530;2022-08-07T06:43:50;101950.53;;;17.74;100.00
49055;BME280;35405;52.344;14.530;2022-08-07T06:46:17;101949.09;;;17.76;100.00
49055;BME280;35405;52.344;14.530;2022-08-07T06:48:43;101941.53;;;17.96;100.00
49055;BME280;35405;52.344;14.530;2022-08-07T06:51:09;101954.19;;;17.97;100.00
49055;BME280;35405;52.344;14.530;2022-08-07T06:53:38;101954.97;;;18.11;100.00
49055;BME280;35405;52.344;14.530;2022-08-07T06:56:04;101953.91;;;18.21;100.00
49055;BME280;35405;52.344;14.530;2022-08-07T06:58:30;101949.56;;;18.28;100.00
49055;BME280;35405;52.344;14.530;2022-08-07T07:00:56;101951.31;;;18.47;100.00
49055;BME280;35405;52.344;14.530;2022-08-07T07:03:22;101952.72;;;18.36;100.00
49055;BME280;35405;52.344;14.530;2022-08-07T07:05:48;101950.84;;;18.45;100.00
49055;BME280;35405;52.344;14.530;2022-08-07T07:08:13;101944.53;;;18.53;100.00
49055;BME280;35405;52.344;14.530;2022-08-07T07:10:39;101950.66;;;18.72;100.00
49055;BME280;35405;52.344;14.530;2022-08-07T07:15:30;101941.94;;;19.02;100.00
49055;BME280;35405;52.344;14.530;2022-08-07T07:20:45;101943.38;;;18.99;100.00
49055;BME280;35405;52.344;14.530;2022-08-07T07:23:11;101950.00;;;18.98;100.00
49055;BME280;35405;52.344;14.530;2022-08-07T07:25:38;101940.78;;;19.03;100.00
49055;BME280;35405;52.344;14.530;2022-08-07T07:28:09;101936.47;;;19.19;99.15
49055;BME280;35405;52.344;14.530;2022-08-07T07:30:38;101936.28;;;19.15;100.00
49055;BME280;35405;52.344;14.530;2022-08-07T07:33:04;101937.97;;;19.34;98.88
49055;BME280;35405;52.344;14.530;2022-08-07T07:35:30;101929.25;;;19.40;98.61
49055;BME280;35405;52.344;14.530;2022-08-07T07:37:58;101923.41;;;19.51;98.40
49055;BME280;35405;52.344;14.530;2022-08-07T07:40:24;101932.56;;;19.69;91.79
49055;BME280;35405;52.344;14.530;2022-08-07T07:42:51;101922.94;;;19.57;94.79
49055;BME280;35405;52.344;14.530;2022-08-07T07:45:17;101929.59;;;19.56;91.76
49055;BME280;35405;52.344;14.530;2022-08-07T07:47:43;101932.69;;;19.63;93.71
49055;BME280;35405;52.344;14.530;2022-08-07T07:50:09;101923.56;;;19.54;94.70
49055;BME280;35405;52.344;14.530;2022-08-07T07:55:23;101918.44;;;19.87;89.98
49055;BME280;35405;52.344;14.530;2022-08-07T07:57:50;101915.03;;;19.99;91.36
49055;BME280;35405;52.344;14.530;2022-08-07T08:00:16;101919.41;;;20.09;87.55
49055;BME280;35405;52.344;14.530;2022-08-07T08:02:46;101921.22;;;20.14;88.32
49055;BME280;35405;52.344;14.530;2022-08-07T08:05:13;101916.00;;;20.21;87.47
49055;BME280;35405;52.344;14.530;2022-08-07T08:07:40;101910.59;;;20.33;88.67
49055;BME280;35405;52.344;14.530;2022-08-07T08:10:06;101918.72;;;20.55;88.19
49055;BME280;35405;52.344;14.530;2022-08-07T08:12:32;101921.81;;;20.54;87.59
49055;BME280;35405;52.344;14.530;2022-08-07T08:14:57;101913.50;;;20.37;87.87
